createdAt,value
2023-02-05T00:01:31.609Z,101142.59
2023-02-05T00:04:00.003Z,101149.59
2023-02-05T00:06:30.906Z,101138.25
2023-02-05T00:08:59.837Z,101136.50
2023-02-05T00:11:30.115Z,101137.38
2023-02-05T00:13:58.287Z,101144.38
2023-02-05T00:16:27.222Z,101139.97
2023-02-05T00:18:56.338Z,101158.31
2023-02-05T00:21:26.079Z,101153.09
2023-02-05T00:23:55.092Z,101140.81
2023-02-05T00:26:24.837Z,101142.56
2023-02-05T00:28:54.913Z,101139.91
2023-02-05T00:31:26.183Z,101135.53
2023-02-05T00:33:54.666Z,101127.72
2023-02-05T00:36:24.040Z,101124.22
2023-02-05T00:38:53.587Z,101127.72
2023-02-05T00:41:21.867Z,101128.59
2023-02-05T00:43:50.361Z,101118.97
2023-02-05T00:46:21.236Z,101122.47
2023-02-05T00:48:50.866Z,101118.09
2023-02-05T00:51:20.227Z,101110.28
2023-02-05T00:53:51.411Z,101105.09
2023-02-05T00:56:24.200Z,101093.72
2023-02-05T00:58:52.734Z,101091.91
2023-02-05T01:01:24.939Z,101101.59
2023-02-05T01:03:54.877Z,101104.19
2023-02-05T01:06:23.303Z,101093.72
2023-02-05T01:08:52.964Z,101086.72
2023-02-05T01:11:21.873Z,101081.53
2023-02-05T01:13:49.950Z,101078.06
2023-02-05T01:16:18.620Z,101073.72
2023-02-05T01:18:48.550Z,101081.59
2023-02-05T01:21:16.927Z,101075.50
2023-02-05T01:23:45.395Z,101073.75
2023-02-05T01:26:13.550Z,101078.97
2023-02-05T01:28:41.669Z,101075.50
2023-02-05T01:31:11.417Z,101064.16
2023-02-05T01:33:39.770Z,101060.63
2023-02-05T01:36:11.142Z,101057.16
2023-02-05T01:38:39.785Z,101061.53
2023-02-05T01:41:09.326Z,101057.16
2023-02-05T01:43:37.451Z,101058.88
2023-02-05T01:46:23.614Z,101062.38
2023-02-05T01:48:56.224Z,101053.69
2023-02-05T01:51:28.385Z,101051.91
2023-02-05T01:53:57.080Z,101048.44
2023-02-05T01:56:28.408Z,101051.03
2023-02-05T01:59:02.132Z,101046.63
2023-02-05T02:01:30.561Z,101037.03
2023-02-05T02:04:04.678Z,101042.28
2023-02-05T02:06:36.177Z,101034.34
2023-02-05T02:09:08.013Z,101029.97
2023-02-05T02:11:40.676Z,101026.50
2023-02-05T02:14:11.237Z,101026.50
2023-02-05T02:16:41.267Z,101023.88
2023-02-05T02:19:18.902Z,101009.91
2023-02-05T02:22:14.371Z,101009.09
2023-02-05T02:25:00.356Z,101008.19
2023-02-05T02:27:54.162Z,101006.44
2023-02-05T02:30:27.008Z,101002.94
2023-02-05T02:33:05.931Z,101001.19
2023-02-05T02:35:44.238Z,101003.78
2023-02-05T02:38:22.682Z,100995.94
2023-02-05T02:40:54.086Z,100979.38
2023-02-05T02:43:31.945Z,100982.84
2023-02-05T02:46:04.849Z,100997.72
2023-02-05T02:48:36.569Z,100975.06
2023-02-05T02:51:08.082Z,100980.28
2023-02-05T02:53:41.178Z,100975.00
2023-02-05T02:56:13.811Z,100984.59
2023-02-05T02:58:47.415Z,100975.00
2023-02-05T03:01:18.772Z,100965.34
2023-02-05T03:03:54.817Z,100968.00
2023-02-05T03:06:24.186Z,100969.78
2023-02-05T03:08:57.177Z,100968.91
2023-02-05T03:11:26.467Z,100974.19
2023-02-05T03:13:57.773Z,100978.50
2023-02-05T03:16:28.101Z,100975.03
2023-02-05T03:18:59.947Z,100968.91
2023-02-05T03:21:34.272Z,100967.19
2023-02-05T03:24:03.195Z,100961.94
2023-02-05T03:26:35.223Z,100960.22
2023-02-05T03:29:09.254Z,100959.34
2023-02-05T03:31:45.766Z,100958.41
2023-02-05T03:34:29.030Z,100961.00
2023-02-05T03:37:10.159Z,100955.72
2023-02-05T03:39:52.139Z,100976.63
2023-02-05T03:42:35.642Z,100974.91
2023-02-05T03:45:26.253Z,100981.94
2023-02-05T03:48:06.283Z,100982.78
2023-02-05T03:50:41.495Z,100974.94
2023-02-05T03:53:19.230Z,100974.03
2023-02-05T03:55:52.321Z,100968.78
2023-02-05T03:58:26.376Z,100964.53
2023-02-05T04:00:56.458Z,100951.41
2023-02-05T04:03:24.932Z,100952.22
2023-02-05T04:05:54.791Z,100958.38
2023-02-05T04:08:23.245Z,100969.72
2023-02-05T04:10:51.632Z,100977.66
2023-02-05T04:13:19.741Z,100969.78
2023-02-05T04:15:49.988Z,100974.09
2023-02-05T04:18:20.959Z,100973.22
2023-02-05T04:20:49.795Z,100973.22
2023-02-05T04:23:17.954Z,100978.47
2023-02-05T04:25:46.718Z,100960.09
2023-02-05T04:28:15.185Z,100953.03
2023-02-05T04:30:43.975Z,100947.78
2023-02-05T04:33:13.649Z,100939.94
2023-02-05T04:35:43.562Z,100938.22
2023-02-05T04:38:12.118Z,100923.34
2023-02-05T04:40:40.592Z,100934.69
2023-02-05T04:43:09.020Z,100935.56
2023-02-05T04:45:40.515Z,100920.81
2023-02-05T04:48:09.782Z,100920.75
2023-02-05T04:50:39.600Z,100921.66
2023-02-05T04:53:09.325Z,100925.22
2023-02-05T04:55:37.529Z,100935.72
2023-02-05T04:58:08.114Z,100937.47
2023-02-05T05:00:36.781Z,100938.31
2023-02-05T05:03:05.712Z,100936.59
2023-02-05T05:05:36.259Z,100949.69
2023-02-05T05:08:05.135Z,100956.63
2023-02-05T05:10:35.169Z,100954.00
2023-02-05T05:13:03.277Z,100954.81
2023-02-05T05:15:31.556Z,100964.41
2023-02-05T05:17:59.747Z,100966.16
2023-02-05T05:20:29.898Z,100960.00
2023-02-05T05:22:58.481Z,100960.88
2023-02-05T05:25:26.830Z,100961.72
2023-02-05T05:27:56.659Z,100955.56
2023-02-05T05:30:27.972Z,100959.19
2023-02-05T05:32:56.202Z,100959.03
2023-02-05T05:35:24.248Z,100953.81
2023-02-05T05:37:52.600Z,100952.03
2023-02-05T05:40:38.435Z,100952.91
2023-02-05T05:43:28.689Z,100956.50
2023-02-05T05:45:57.131Z,100958.25
2023-02-05T05:48:25.350Z,100969.63
2023-02-05T05:50:53.704Z,100958.28
2023-02-05T05:53:22.125Z,100960.03
2023-02-05T05:55:50.615Z,100957.38
2023-02-05T05:58:21.191Z,100945.09
2023-02-05T06:00:49.606Z,100943.38
2023-02-05T06:03:19.229Z,100943.38
2023-02-05T06:05:49.718Z,100944.22
2023-02-05T06:08:17.998Z,100941.66
2023-02-05T06:10:46.786Z,100945.13
2023-02-05T06:13:14.983Z,100945.94
2023-02-05T06:15:44.627Z,100949.47
2023-02-05T06:18:13.008Z,100950.44
2023-02-05T06:20:41.454Z,100952.22
2023-02-05T06:23:09.852Z,100960.09
2023-02-05T06:25:38.256Z,100949.56
2023-02-05T06:28:06.543Z,100935.66
2023-02-05T06:30:34.703Z,100941.72
2023-02-05T06:33:04.181Z,100937.41
2023-02-05T06:35:33.013Z,100924.28
2023-02-05T06:38:01.736Z,100914.72
2023-02-05T06:40:31.321Z,100919.94
2023-02-05T06:42:59.827Z,100929.56
2023-02-05T06:45:28.572Z,100927.88
2023-02-05T06:47:57.721Z,100918.22
2023-02-05T06:50:27.777Z,100915.63
2023-02-05T06:52:56.033Z,100928.78
2023-02-05T06:55:24.413Z,100921.94
2023-02-05T06:57:53.757Z,100913.09
2023-02-05T07:00:22.519Z,100911.34
2023-02-05T07:02:51.090Z,100913.19
2023-02-05T07:05:19.372Z,100913.19
2023-02-05T07:07:49.980Z,100918.41
2023-02-05T07:10:18.969Z,100929.81
2023-02-05T07:12:47.208Z,100925.53
2023-02-05T07:15:15.372Z,100929.78
2023-02-05T07:17:43.561Z,100925.44
2023-02-05T07:20:12.612Z,100925.34
2023-02-05T07:22:42.081Z,100921.91
2023-02-05T07:25:12.327Z,100919.25
2023-02-05T07:27:41.664Z,100918.41
2023-02-05T07:30:13.021Z,100908.81
2023-02-05T07:32:41.455Z,100914.09
2023-02-05T07:35:10.652Z,100914.09
2023-02-05T07:37:39.701Z,100922.75
2023-02-05T07:40:11.726Z,100921.03
2023-02-05T07:42:42.740Z,100916.66
2023-02-05T07:45:12.152Z,100921.84
2023-02-05T07:47:40.369Z,100923.63
2023-02-05T07:50:09.096Z,100908.72
2023-02-05T07:52:37.092Z,100915.66
2023-02-05T07:55:05.912Z,100915.69
2023-02-05T07:57:34.373Z,100914.84
2023-02-05T08:00:04.448Z,100910.47
2023-02-05T08:02:35.198Z,100899.13
2023-02-05T08:05:03.623Z,100892.97
2023-02-05T08:07:34.036Z,100883.28
2023-02-05T08:10:02.708Z,100885.97
2023-02-05T08:12:32.585Z,100884.19
2023-02-05T08:15:01.180Z,100885.09
2023-02-05T08:17:30.956Z,100890.34
2023-02-05T08:20:00.036Z,100886.91
2023-02-05T08:22:28.259Z,100893.06
2023-02-05T08:24:56.622Z,100892.16
2023-02-05T08:27:26.979Z,100884.22
2023-02-05T08:29:56.326Z,100886.97
2023-02-05T08:32:24.705Z,100892.94
2023-02-05T08:34:54.605Z,100892.81
2023-02-05T08:37:23.276Z,100884.16
2023-02-05T08:39:51.662Z,100892.16
2023-02-05T08:42:21.776Z,100886.03
2023-02-05T08:44:50.318Z,100880.81
2023-02-05T08:47:21.100Z,100874.66
2023-02-05T08:49:49.995Z,100871.06
2023-02-05T08:52:20.147Z,100874.63
2023-02-05T08:54:49.505Z,100873.88
2023-02-05T08:57:18.003Z,100879.03
2023-02-05T08:59:46.935Z,100881.63
2023-02-05T09:02:17.273Z,100887.66
2023-02-05T09:04:48.217Z,100879.03
2023-02-05T09:07:19.404Z,100886.94
2023-02-05T09:09:47.524Z,100882.56
2023-02-05T09:12:15.609Z,100888.56
2023-02-05T09:14:43.695Z,100888.53
2023-02-05T09:17:14.536Z,100886.91
2023-02-05T09:19:43.423Z,100881.53
2023-02-05T09:22:12.205Z,100886.69
2023-02-05T09:24:42.163Z,100871.28
2023-02-05T09:27:14.436Z,100882.63
2023-02-05T09:29:43.650Z,100874.63
2023-02-05T09:32:11.927Z,100879.00
2023-02-05T09:34:39.985Z,100875.47
2023-02-05T09:37:09.887Z,100871.09
2023-02-05T09:42:46.276Z,100870.13
2023-02-05T09:45:28.254Z,100864.06
2023-02-05T09:48:06.053Z,100858.88
2023-02-05T09:50:35.714Z,100856.19
2023-02-05T09:53:08.082Z,100856.97
2023-02-05T09:55:41.285Z,100855.41
2023-02-05T09:58:17.930Z,100849.19
2023-02-05T10:00:50.401Z,100852.81
2023-02-05T10:03:27.586Z,100858.91
2023-02-05T10:06:12.179Z,100857.13
2023-02-05T10:08:50.172Z,100851.78
2023-02-05T10:11:29.218Z,100857.81
2023-02-05T10:14:11.224Z,100845.56
2023-02-05T10:17:16.448Z,100853.63
2023-02-05T10:20:13.985Z,100851.66
2023-02-05T10:22:52.989Z,100845.59
2023-02-05T10:25:59.913Z,100844.81
2023-02-05T10:28:53.820Z,100843.03
2023-02-05T10:31:39.757Z,100840.38
2023-02-05T10:34:19.896Z,100840.34
2023-02-05T10:36:52.089Z,100835.03
2023-02-05T10:39:25.657Z,100842.03
2023-02-05T10:42:00.411Z,100831.78
2023-02-05T10:44:32.905Z,100833.34
2023-02-05T10:47:07.781Z,100825.50
2023-02-05T10:49:52.140Z,100829.13
2023-02-05T10:52:21.882Z,100825.41
2023-02-05T10:54:51.078Z,100826.31
2023-02-05T10:57:23.281Z,100820.16
2023-02-05T10:59:55.671Z,100826.25
2023-02-05T11:02:36.346Z,100824.50
2023-02-05T11:05:08.807Z,100820.19
2023-02-05T11:07:43.352Z,100826.25
2023-02-05T11:10:17.439Z,100820.34
2023-02-05T11:12:49.896Z,100813.34
2023-02-05T11:15:26.875Z,100813.28
2023-02-05T11:18:00.833Z,100812.34
2023-02-05T11:20:31.527Z,100809.72
2023-02-05T11:23:17.089Z,100817.50
2023-02-05T11:25:51.803Z,100809.66
2023-02-05T11:28:28.532Z,100805.28
2023-02-05T11:30:57.469Z,100802.53
2023-02-05T11:33:32.945Z,100802.50
2023-02-05T11:36:03.861Z,100803.47
2023-02-05T11:38:36.304Z,100805.13
2023-02-05T11:41:08.214Z,100808.47
2023-02-05T11:43:40.492Z,100812.78
2023-02-05T11:46:11.334Z,100805.81
2023-02-05T11:48:43.665Z,100803.16
2023-02-05T11:51:15.636Z,100803.19
2023-02-05T11:53:53.754Z,100810.34
2023-02-05T11:56:25.460Z,100808.50
2023-02-05T11:59:01.692Z,100799.63
2023-02-05T12:01:33.964Z,100800.38
2023-02-05T12:04:05.394Z,100797.34
2023-02-05T12:06:39.504Z,100793.38
2023-02-05T12:09:07.923Z,100806.41
2023-02-05T12:12:06.913Z,100796.03
2023-02-05T12:14:43.633Z,100804.69
2023-02-05T12:17:34.947Z,100794.81
2023-02-05T12:20:16.076Z,100785.88
2023-02-05T12:23:14.891Z,100797.28
2023-02-05T12:25:55.462Z,100786.75
2023-02-05T12:28:38.948Z,100784.84
2023-02-05T12:31:20.884Z,100781.44
2023-02-05T12:34:18.224Z,100781.41
2023-02-05T12:37:01.402Z,100782.22
2023-02-05T12:39:40.440Z,100780.53
2023-02-05T12:42:23.003Z,100784.88
2023-02-05T12:45:09.384Z,100777.81
2023-02-05T12:48:15.824Z,100778.59
2023-02-05T12:51:12.164Z,100773.59
2023-02-05T12:54:17.352Z,100775.16
2023-02-05T12:56:59.569Z,100774.13
2023-02-05T12:59:37.115Z,100771.31
2023-02-05T13:02:16.804Z,100774.06
2023-02-05T13:04:53.868Z,100771.47
2023-02-05T13:07:30.679Z,100767.88
2023-02-05T13:10:08.515Z,100763.06
2023-02-05T13:12:44.009Z,100763.47
2023-02-05T13:15:20.003Z,100762.34
2023-02-05T13:18:01.221Z,100761.53
2023-02-05T13:20:51.366Z,100761.38
2023-02-05T13:23:38.134Z,100758.00
2023-02-05T13:26:27.484Z,100750.97
2023-02-05T13:31:49.549Z,100747.03
2023-02-05T13:34:19.030Z,100739.16
2023-02-05T13:37:24.119Z,100750.91
2023-02-05T13:40:22.911Z,100758.94
2023-02-05T13:43:31.034Z,100758.97
2023-02-05T13:46:21.251Z,100760.03
2023-02-05T13:49:27.514Z,100770.81
2023-02-05T13:52:12.303Z,100775.03
2023-02-05T13:55:09.745Z,100782.41
2023-02-05T13:58:13.611Z,100780.47
2023-02-05T14:00:45.088Z,100780.66
2023-02-05T14:03:30.709Z,100779.44
2023-02-05T14:05:59.619Z,100778.66
2023-02-05T14:08:32.811Z,100776.56
2023-02-05T14:11:03.553Z,100783.56
2023-02-05T14:13:36.065Z,100777.19
2023-02-05T14:16:38.364Z,100788.56
2023-02-05T14:19:18.760Z,100794.34
2023-02-05T14:22:07.520Z,100798.28
2023-02-05T14:24:50.530Z,100797.50
2023-02-05T14:27:49.184Z,100808.63
2023-02-05T14:30:41.376Z,100802.50
2023-02-05T14:33:43.239Z,100812.41
2023-02-05T14:36:36.551Z,100813.34
2023-02-05T14:39:22.981Z,100819.47
2023-02-05T14:41:55.890Z,100813.28
2023-02-05T14:44:28.931Z,100819.19
2023-02-05T14:47:01.910Z,100823.88
2023-02-05T14:49:40.472Z,100820.47
2023-02-05T14:52:32.008Z,100815.84
2023-02-05T14:55:04.134Z,100816.88
2023-02-05T14:57:42.860Z,100822.78
2023-02-05T15:00:29.385Z,100834.41
2023-02-05T15:03:32.961Z,100839.56
2023-02-05T15:06:06.810Z,100837.28
2023-02-05T15:08:46.139Z,100852.31
2023-02-05T15:11:23.429Z,100863.56
2023-02-05T15:14:41.610Z,100866.41
2023-02-05T15:18:00.510Z,100875.78
2023-02-05T15:20:34.064Z,100876.97
2023-02-05T15:23:08.872Z,100879.72
2023-02-05T15:25:56.938Z,100877.84
2023-02-05T15:28:33.694Z,100876.81
2023-02-05T15:31:23.474Z,100890.28
2023-02-05T15:34:00.759Z,100878.09
2023-02-05T15:36:35.902Z,100884.47
2023-02-05T15:39:20.179Z,100885.41
2023-02-05T15:41:50.671Z,100894.97
2023-02-05T15:44:24.995Z,100912.13
2023-02-05T15:46:55.646Z,100904.38
2023-02-05T15:49:32.212Z,100910.66
2023-02-05T15:52:02.549Z,100915.00
2023-02-05T15:54:33.542Z,100910.56
2023-02-05T15:57:05.601Z,100908.75
2023-02-05T15:59:35.770Z,100908.59
2023-02-05T16:02:09.084Z,100919.03
2023-02-05T16:04:39.368Z,100920.09
2023-02-05T16:07:20.700Z,100928.03
2023-02-05T16:09:52.991Z,100933.34
2023-02-05T16:12:24.094Z,100936.06
2023-02-05T16:15:03.819Z,100943.84
2023-02-05T16:17:39.163Z,100947.47
2023-02-05T16:20:27.206Z,100958.88
2023-02-05T16:22:59.548Z,100969.41
2023-02-05T16:25:38.836Z,100972.91
2023-02-05T16:28:17.042Z,100976.50
2023-02-05T16:30:49.735Z,100979.09
2023-02-05T16:33:30.562Z,100994.84
2023-02-05T16:36:01.170Z,100995.72
2023-02-05T16:38:30.303Z,100998.41
2023-02-05T16:41:02.058Z,100995.78
2023-02-05T16:43:37.963Z,101000.19
2023-02-05T16:48:52.970Z,100991.34
2023-02-05T16:51:55.944Z,100993.97
2023-02-05T16:54:34.305Z,100985.16
2023-02-05T16:57:07.895Z,100990.38
2023-02-05T16:59:53.062Z,101000.97
2023-02-05T17:02:29.701Z,101022.81
2023-02-05T17:05:02.135Z,101021.09
2023-02-05T17:07:32.863Z,101017.63
2023-02-05T17:10:22.126Z,101029.84
2023-02-05T17:12:55.200Z,101021.19
2023-02-05T17:15:33.643Z,101029.06
2023-02-05T17:18:06.511Z,101024.75
2023-02-05T17:21:09.422Z,101027.31
2023-02-05T17:23:37.861Z,101043.06
2023-02-05T17:26:06.590Z,101044.72
2023-02-05T17:28:38.370Z,101050.84
2023-02-05T17:31:17.635Z,101047.25
2023-02-05T17:33:46.034Z,101063.94
2023-02-05T17:36:19.821Z,101054.31
2023-02-05T17:38:48.874Z,101054.34
2023-02-05T17:41:36.244Z,101070.13
2023-02-05T17:44:05.457Z,101080.66
2023-02-05T17:46:35.908Z,101084.97
2023-02-05T17:49:04.163Z,101087.59
2023-02-05T17:51:32.441Z,101095.44
2023-02-05T17:54:02.107Z,101090.19
2023-02-05T17:56:30.539Z,101096.25
2023-02-05T17:58:58.783Z,101096.28
2023-02-05T18:01:28.557Z,101097.16
2023-02-05T18:03:58.537Z,101093.72
2023-02-05T18:06:27.524Z,101093.72
2023-02-05T18:08:55.824Z,101097.19
2023-02-05T18:11:24.236Z,101092.88
2023-02-05T18:13:52.748Z,101091.09
2023-02-05T18:16:21.348Z,101096.28
2023-02-05T18:18:51.528Z,101103.34
2023-02-05T18:21:22.430Z,101102.44
2023-02-05T18:23:52.840Z,101098.97
2023-02-05T18:26:21.287Z,101101.53
2023-02-05T18:28:50.127Z,101109.47
2023-02-05T18:31:18.845Z,101112.88
2023-02-05T18:33:49.070Z,101125.13
2023-02-05T18:36:17.771Z,101122.47
2023-02-05T18:38:47.953Z,101130.31
2023-02-05T18:41:18.264Z,101127.84
2023-02-05T18:43:46.446Z,101126.13
2023-02-05T18:46:16.348Z,101120.03
2023-02-05T18:48:46.341Z,101111.34
2023-02-05T18:51:17.031Z,101120.91
2023-02-05T18:53:50.266Z,101113.13
2023-02-05T18:56:20.522Z,101104.41
2023-02-05T18:58:54.658Z,101119.09
2023-02-05T19:01:23.058Z,101121.72
2023-02-05T19:03:54.520Z,101121.69
2023-02-05T19:06:23.726Z,101129.63
2023-02-05T19:08:53.422Z,101135.81
2023-02-05T19:11:24.496Z,101141.03
2023-02-05T19:13:56.651Z,101136.72
2023-02-05T19:16:26.058Z,101144.56
2023-02-05T19:18:55.811Z,101162.03
2023-02-05T19:21:25.329Z,101162.06
2023-02-05T19:23:57.676Z,101169.84
2023-02-05T19:26:31.289Z,101168.22
2023-02-05T19:29:01.678Z,101172.63
2023-02-05T19:31:32.079Z,101179.66
2023-02-05T19:34:01.626Z,101172.56
2023-02-05T19:36:31.615Z,101172.63
2023-02-05T19:39:04.305Z,101169.94
2023-02-05T19:41:34.321Z,101179.69
2023-02-05T19:44:04.391Z,101170.88
2023-02-05T19:46:35.768Z,101175.31
2023-02-05T19:49:05.859Z,101180.53
2023-02-05T19:51:34.594Z,101175.25
2023-02-05T19:54:05.146Z,101176.25
2023-02-05T19:56:38.300Z,101177.97
2023-02-05T19:59:07.340Z,101186.66
2023-02-05T20:01:37.878Z,101198.03
2023-02-05T20:04:09.976Z,101185.84
2023-02-05T20:06:39.155Z,101182.22
2023-02-05T20:09:12.109Z,101185.72
2023-02-05T20:11:41.844Z,101185.72
2023-02-05T20:14:12.032Z,101183.97
2023-02-05T20:16:41.639Z,101187.41
2023-02-05T20:19:12.902Z,101190.91
2023-02-05T20:21:41.387Z,101195.25
2023-02-05T20:24:13.457Z,101196.97
2023-02-05T20:26:42.682Z,101203.13
2023-02-05T20:29:30.918Z,101197.09
2023-02-05T20:32:05.065Z,101198.84
2023-02-05T20:34:36.344Z,101193.66
2023-02-05T20:37:09.585Z,101202.38
2023-02-05T20:39:42.701Z,101202.34
2023-02-05T20:42:13.665Z,101210.22
2023-02-05T20:44:43.479Z,101219.81
2023-02-05T20:47:14.293Z,101212.81
2023-02-05T20:49:43.703Z,101223.44
2023-02-05T20:52:13.185Z,101226.03
2023-02-05T20:54:46.403Z,101229.53
2023-02-05T20:57:15.074Z,101232.16
2023-02-05T20:59:45.506Z,101226.94
2023-02-05T21:02:14.297Z,101233.91
2023-02-05T21:04:42.958Z,101226.91
2023-02-05T21:07:11.709Z,101233.91
2023-02-05T21:09:40.498Z,101236.53
2023-02-05T21:12:10.739Z,101233.03
2023-02-05T21:14:39.415Z,101243.53
2023-02-05T21:17:09.765Z,101245.31
2023-02-05T21:19:38.577Z,101235.66
2023-02-05T21:22:07.089Z,101248.72
2023-02-05T21:24:35.733Z,101240.88
2023-02-05T21:27:04.171Z,101242.59
2023-02-05T21:29:34.366Z,101246.19
2023-02-05T21:32:02.404Z,101244.41
2023-02-05T21:34:30.909Z,101247.94
2023-02-05T21:37:00.210Z,101242.69
2023-02-05T21:39:28.741Z,101259.34
2023-02-05T21:41:57.289Z,101254.97
2023-02-05T21:44:26.223Z,101256.72
2023-02-05T21:46:55.942Z,101259.31
2023-02-05T21:49:24.966Z,101261.09
2023-02-05T21:51:53.522Z,101264.56
2023-02-05T21:54:25.708Z,101271.56
2023-02-05T21:56:54.126Z,101283.84
2023-02-05T21:59:22.521Z,101290.84
2023-02-05T22:01:50.674Z,101289.06
2023-02-05T22:04:21.082Z,101302.19
2023-02-05T22:06:49.177Z,101304.78
2023-02-05T22:09:18.208Z,101313.56
2023-02-05T22:11:46.800Z,101323.19
2023-02-05T22:14:15.196Z,101316.19
2023-02-05T22:16:44.286Z,101316.19
2023-02-05T22:19:14.013Z,101319.66
2023-02-05T22:21:44.757Z,101322.22
2023-02-05T22:24:17.081Z,101332.72
2023-02-05T22:26:46.374Z,101328.38
2023-02-05T22:29:19.335Z,101328.38
2023-02-05T22:31:51.964Z,101342.31
2023-02-05T22:34:20.435Z,101338.84
2023-02-05T22:36:50.393Z,101338.03
2023-02-05T22:39:18.777Z,101325.75
2023-02-05T22:41:47.138Z,101338.00
2023-02-05T22:44:17.074Z,101341.47
2023-02-05T22:46:48.470Z,101344.97
2023-02-05T22:49:16.642Z,101333.59
2023-02-05T22:51:45.413Z,101341.47
2023-02-05T22:54:16.388Z,101345.75
2023-02-05T22:56:44.635Z,101348.44
2023-02-05T22:59:13.232Z,101332.75
2023-02-05T23:01:42.709Z,101338.84
2023-02-05T23:04:11.666Z,101343.28
2023-02-05T23:06:42.173Z,101337.09
2023-02-05T23:09:12.719Z,101333.59
2023-02-05T23:11:45.017Z,101335.34
2023-02-05T23:14:15.714Z,101339.69
2023-02-05T23:16:48.715Z,101343.28
2023-02-05T23:19:22.525Z,101342.31
2023-02-05T23:21:50.787Z,101337.88
2023-02-05T23:24:21.706Z,101334.41
2023-02-05T23:26:53.676Z,101327.47
2023-02-05T23:29:22.176Z,101333.56
2023-02-05T23:31:50.739Z,101335.34
2023-02-05T23:34:19.174Z,101343.19
2023-02-05T23:36:47.686Z,101338.84
2023-02-05T23:39:16.345Z,101339.63
2023-02-05T23:41:44.651Z,101344.06
2023-02-05T23:44:17.860Z,101346.66
2023-02-05T23:46:47.034Z,101338.72
2023-02-05T23:49:16.127Z,101337.91
2023-02-05T23:51:45.030Z,101337.00
2023-02-05T23:54:13.988Z,101346.69
2023-02-05T23:56:43.226Z,101332.69
2023-02-05T23:59:16.812Z,101347.63
